createdAt,value
2023-04-17T00:00:13.709Z,236.13
2023-04-17T00:01:13.684Z,234.24
2023-04-17T00:02:13.797Z,236.13
2023-04-17T00:03:13.831Z,235.10
2023-04-17T00:04:13.825Z,234.53
2023-04-17T00:05:13.732Z,232.54
2023-04-17T00:06:13.725Z,232.60
2023-04-17T00:07:13.682Z,229.39
2023-04-17T00:08:13.691Z,229.12
2023-04-17T00:09:13.813Z,229.47
2023-04-17T00:10:13.667Z,228.35
2023-04-17T00:11:13.690Z,227.89
2023-04-17T00:12:13.656Z,227.19
2023-04-17T00:13:13.640Z,225.58
2023-04-17T00:14:13.632Z,227.22
2023-04-17T00:15:13.638Z,223.47
2023-04-17T00:16:13.809Z,223.06
2023-04-17T00:17:13.744Z,223.80
2023-04-17T00:18:13.825Z,223.25
2023-04-17T00:19:13.852Z,221.77
2023-04-17T00:20:13.924Z,220.55
2023-04-17T00:21:14.007Z,218.71
2023-04-17T00:22:14.050Z,216.17
2023-04-17T00:23:14.091Z,214.29
2023-04-17T00:24:14.157Z,218.15
2023-04-17T00:25:14.185Z,218.19
2023-04-17T00:26:14.141Z,218.26
2023-04-17T00:27:14.132Z,214.70
2023-04-17T00:28:14.131Z,213.44
2023-04-17T00:29:14.205Z,213.21
2023-04-17T00:30:14.148Z,211.95
2023-04-17T00:31:14.135Z,212.63
2023-04-17T00:32:14.245Z,213.17
2023-04-17T00:33:14.117Z,211.11
2023-04-17T00:34:14.120Z,210.18
2023-04-17T00:35:14.190Z,209.54
2023-04-17T00:36:14.228Z,211.05
2023-04-17T00:37:14.286Z,208.00
2023-04-17T00:38:14.333Z,210.18
2023-04-17T00:39:14.582Z,205.78
2023-04-17T00:40:14.430Z,205.91
2023-04-17T00:41:14.397Z,205.81
2023-04-17T00:42:14.399Z,202.60
2023-04-17T00:43:14.401Z,201.41
2023-04-17T00:44:14.399Z,202.93
2023-04-17T00:45:14.412Z,203.01
2023-04-17T00:46:14.427Z,203.12
2023-04-17T00:47:14.383Z,203.18
2023-04-17T00:48:14.386Z,203.57
2023-04-17T00:49:14.416Z,204.17
2023-04-17T00:50:14.416Z,203.20
2023-04-17T00:51:14.388Z,203.46
2023-04-17T00:52:14.436Z,203.73
2023-04-17T00:53:14.380Z,204.38
2023-04-17T00:54:14.388Z,204.74
2023-04-17T00:55:14.390Z,205.81
2023-04-17T00:56:14.357Z,205.24
2023-04-17T00:57:14.418Z,205.57
2023-04-17T00:58:14.388Z,203.55
2023-04-17T00:59:14.489Z,202.62
2023-04-17T01:00:14.432Z,203.32
2023-04-17T01:01:14.546Z,200.23
2023-04-17T01:02:14.629Z,203.51
2023-04-17T01:03:14.804Z,202.30
2023-04-17T01:04:14.923Z,200.71
2023-04-17T01:05:14.883Z,199.87
2023-04-17T01:06:14.788Z,195.13
2023-04-17T01:07:14.863Z,198.29
2023-04-17T01:08:14.918Z,198.52
2023-04-17T01:09:14.998Z,197.20
2023-04-17T01:10:15.098Z,195.08
2023-04-17T01:11:15.093Z,198.26
2023-04-17T01:12:15.149Z,199.64
2023-04-17T01:13:15.306Z,199.81
2023-04-17T01:14:15.242Z,199.88
2023-04-17T01:15:15.200Z,200.09
2023-04-17T01:16:15.289Z,201.22
2023-04-17T01:17:15.176Z,201.20
2023-04-17T01:18:15.178Z,201.77
2023-04-17T01:19:15.172Z,203.26
2023-04-17T01:20:15.192Z,203.56
2023-04-17T01:21:15.186Z,205.56
2023-04-17T01:22:15.177Z,206.02
2023-04-17T01:23:15.185Z,207.07
2023-04-17T01:24:15.156Z,207.16
2023-04-17T01:25:15.187Z,207.78
2023-04-17T01:26:15.145Z,207.80
2023-04-17T01:27:15.123Z,209.64
2023-04-17T01:28:15.140Z,208.92
2023-04-17T01:29:15.154Z,213.35
2023-04-17T01:30:15.120Z,213.49
2023-04-17T01:31:15.160Z,213.61
2023-04-17T01:32:15.156Z,214.13
2023-04-17T01:33:15.147Z,215.89
2023-04-17T01:34:15.208Z,216.03
2023-04-17T01:35:15.315Z,215.42
2023-04-17T01:36:15.351Z,216.92
2023-04-17T01:37:15.373Z,214.90
2023-04-17T01:38:15.447Z,219.17
2023-04-17T01:39:15.519Z,218.23
2023-04-17T01:40:15.714Z,219.30
2023-04-17T01:41:15.926Z,218.07
2023-04-17T01:42:15.650Z,218.16
2023-04-17T01:43:15.625Z,218.65
2023-04-17T01:44:15.645Z,219.22
2023-04-17T01:45:15.712Z,219.71
2023-04-17T01:46:16.090Z,222.61
2023-04-17T01:47:15.748Z,218.29
2023-04-17T01:48:15.671Z,219.27
2023-04-17T01:49:15.642Z,220.55
2023-04-17T01:50:15.669Z,221.92
2023-04-17T01:51:15.730Z,226.05
2023-04-17T01:52:15.838Z,226.47
2023-04-17T01:53:16.831Z,224.62
2023-04-17T01:54:16.832Z,228.26
2023-04-17T01:55:15.947Z,224.88
2023-04-17T01:56:16.057Z,228.28
2023-04-17T01:57:16.084Z,226.43
2023-04-17T01:58:16.162Z,229.20
2023-04-17T01:59:16.280Z,227.23
2023-04-17T02:00:16.264Z,230.26
2023-04-17T02:02:16.479Z,229.42
2023-04-17T02:03:17.430Z,227.82
2023-04-17T02:04:16.633Z,228.92
2023-04-17T02:05:16.551Z,231.82
2023-04-17T02:06:16.636Z,230.74
2023-04-17T02:07:16.682Z,229.78
2023-04-17T02:08:16.742Z,230.73
2023-04-17T02:09:16.821Z,231.70
2023-04-17T02:10:16.889Z,228.22
2023-04-17T02:11:16.965Z,229.61
2023-04-17T02:12:17.035Z,230.40
2023-04-17T02:13:17.205Z,232.25
2023-04-17T02:14:17.104Z,233.49
2023-04-17T02:15:17.174Z,231.83
2023-04-17T02:16:17.343Z,231.38
2023-04-17T02:17:17.286Z,231.66
2023-04-17T02:18:17.348Z,232.74
2023-04-17T02:19:17.421Z,231.25
2023-04-17T02:20:17.482Z,231.91
2023-04-17T02:21:17.569Z,232.97
2023-04-17T02:22:17.631Z,233.61
2023-04-17T02:23:17.648Z,233.85
2023-04-17T02:24:17.716Z,234.11
2023-04-17T02:25:17.785Z,235.51
2023-04-17T02:26:17.861Z,236.25
2023-04-17T02:27:17.928Z,235.87
2023-04-17T02:28:18.012Z,234.05
2023-04-17T02:29:18.038Z,234.55
2023-04-17T02:30:18.119Z,235.31
2023-04-17T02:31:18.270Z,236.96
2023-04-17T02:32:18.316Z,234.16
2023-04-17T02:33:18.275Z,234.70
2023-04-17T02:34:18.417Z,236.13
2023-04-17T02:35:18.395Z,233.83
2023-04-17T02:36:18.861Z,233.53
2023-04-17T02:37:18.518Z,229.90
2023-04-17T02:38:18.590Z,219.13
2023-04-17T02:39:18.651Z,209.15
2023-04-17T02:40:18.710Z,197.04
2023-04-17T02:41:18.802Z,188.81
2023-04-17T02:42:18.769Z,180.71
2023-04-17T02:43:18.766Z,174.92
2023-04-17T02:44:18.769Z,158.75
2023-04-17T02:45:18.783Z,144.40
2023-04-17T02:46:18.834Z,136.64
2023-04-17T02:47:18.832Z,134.95
2023-04-17T02:48:18.756Z,142.19
2023-04-17T02:49:18.722Z,140.18
2023-04-17T02:50:18.753Z,142.75
2023-04-17T02:51:18.764Z,140.96
2023-04-17T02:52:18.749Z,141.06
2023-04-17T02:53:18.727Z,141.31
2023-04-17T02:54:18.723Z,141.32
2023-04-17T02:55:18.723Z,142.44
2023-04-17T02:56:18.744Z,141.30
2023-04-17T02:57:18.744Z,139.86
2023-04-17T02:58:18.744Z,142.20
2023-04-17T02:59:18.715Z,141.68
2023-04-17T03:00:18.737Z,146.34
2023-04-17T03:01:18.819Z,145.66
2023-04-17T03:02:19.004Z,145.68
2023-04-17T03:03:18.896Z,146.06
2023-04-17T03:04:18.792Z,145.96
2023-04-17T03:05:18.809Z,146.78
2023-04-17T03:06:18.821Z,149.50
2023-04-17T03:07:18.821Z,146.24
2023-04-17T03:08:18.796Z,148.38
2023-04-17T03:09:18.744Z,149.19
2023-04-17T03:10:18.762Z,148.45
2023-04-17T03:11:18.781Z,146.04
2023-04-17T03:12:18.820Z,148.37
2023-04-17T03:13:18.892Z,151.04
2023-04-17T03:14:18.961Z,152.91
2023-04-17T03:15:19.012Z,151.61
2023-04-17T03:16:19.160Z,152.34
2023-04-17T03:17:19.139Z,153.09
2023-04-17T03:18:19.188Z,154.50
2023-04-17T03:19:19.240Z,155.92
2023-04-17T03:20:19.339Z,156.15
2023-04-17T03:21:19.408Z,158.46
2023-04-17T03:22:19.465Z,155.17
2023-04-17T03:23:19.485Z,154.16
2023-04-17T03:24:19.545Z,154.03
2023-04-17T03:25:19.536Z,154.16
2023-04-17T03:26:19.539Z,154.26
2023-04-17T03:27:19.537Z,155.36
2023-04-17T03:28:19.540Z,155.77
2023-04-17T03:29:19.502Z,155.73
2023-04-17T03:30:19.499Z,154.77
2023-04-17T03:31:19.622Z,147.42
2023-04-17T03:32:19.533Z,137.16
2023-04-17T03:33:19.536Z,126.58
2023-04-17T03:34:19.588Z,119.30
2023-04-17T03:35:19.674Z,107.38
2023-04-17T03:36:19.685Z,97.80
2023-04-17T03:37:19.709Z,80.34
2023-04-17T03:38:19.756Z,77.72
2023-04-17T03:39:19.746Z,69.76
2023-04-17T03:40:19.758Z,68.02
2023-04-17T03:41:19.770Z,63.57
2023-04-17T03:42:19.791Z,53.86
2023-04-17T03:43:19.792Z,44.02
2023-04-17T03:44:19.794Z,33.50
2023-04-17T03:45:19.802Z,30.51
2023-04-17T03:46:19.846Z,25.27
2023-04-17T03:47:19.859Z,27.80
2023-04-17T03:48:19.877Z,26.79
2023-04-17T03:49:19.880Z,26.28
2023-04-17T03:50:19.858Z,27.50
2023-04-17T03:51:19.837Z,25.86
2023-04-17T03:52:19.888Z,26.58
2023-04-17T03:53:19.878Z,26.14
2023-04-17T03:54:19.876Z,26.47
2023-04-17T03:55:19.914Z,27.17
2023-04-17T03:56:19.891Z,25.00
2023-04-17T03:57:19.913Z,27.34
2023-04-17T03:58:19.961Z,23.87
2023-04-17T03:59:19.924Z,15.87
2023-04-17T04:00:19.912Z,13.05
2023-04-17T04:01:19.930Z,5.95
2023-04-17T04:02:20.026Z,0.77
2023-04-17T04:03:20.243Z,26.79
2023-04-17T04:04:20.094Z,25.94
2023-04-17T04:05:20.136Z,25.53
2023-04-17T04:06:19.972Z,26.62
2023-04-17T04:07:19.989Z,25.76
2023-04-17T04:08:19.977Z,27.36
2023-04-17T04:09:19.996Z,27.31
2023-04-17T04:10:20.001Z,30.37
2023-04-17T04:11:19.975Z,28.34
2023-04-17T04:12:20.036Z,28.39
2023-04-17T04:13:19.968Z,27.84
2023-04-17T04:14:19.983Z,28.07
2023-04-17T04:15:19.982Z,24.56
2023-04-17T04:16:20.036Z,24.64
2023-04-17T04:17:20.010Z,25.15
2023-04-17T04:18:19.996Z,20.30
2023-04-17T04:19:19.976Z,18.08
2023-04-17T04:20:19.996Z,19.15
2023-04-17T04:21:20.002Z,26.48
2023-04-17T04:22:20.075Z,25.58
2023-04-17T04:23:20.016Z,26.40
2023-04-17T04:24:20.021Z,26.83
2023-04-17T04:25:20.020Z,24.34
2023-04-17T04:26:20.028Z,26.41
2023-04-17T04:27:20.024Z,24.32
2023-04-17T04:28:20.019Z,25.24
2023-04-17T04:29:20.026Z,25.71
2023-04-17T04:30:20.062Z,26.00
2023-04-17T04:31:20.114Z,25.54
2023-04-17T04:32:20.126Z,26.09
2023-04-17T04:33:20.064Z,25.86
2023-04-17T04:34:20.098Z,25.40
2023-04-17T04:35:20.076Z,28.07
2023-04-17T04:36:20.092Z,25.94
2023-04-17T04:37:20.113Z,27.77
2023-04-17T04:38:20.166Z,26.08
2023-04-17T04:39:20.100Z,25.32
2023-04-17T04:40:20.124Z,28.24
2023-04-17T04:41:20.131Z,28.86
2023-04-17T04:42:20.136Z,28.27
2023-04-17T04:43:22.334Z,31.44
2023-04-17T04:44:20.174Z,30.97
2023-04-17T04:45:20.187Z,32.00
2023-04-17T04:46:20.241Z,29.47
2023-04-17T04:47:20.306Z,30.39
2023-04-17T04:48:20.289Z,31.02
2023-04-17T04:49:20.317Z,32.18
2023-04-17T04:50:20.332Z,33.40
2023-04-17T04:51:20.375Z,29.46
2023-04-17T04:52:20.397Z,29.92
2023-04-17T04:53:20.419Z,28.34
2023-04-17T04:54:20.458Z,28.18
2023-04-17T04:55:20.491Z,29.71
2023-04-17T04:56:20.518Z,29.10
2023-04-17T04:57:20.568Z,31.80
2023-04-17T04:58:20.570Z,32.43
2023-04-17T04:59:20.596Z,32.79
2023-04-17T05:00:20.607Z,32.87
2023-04-17T05:01:20.738Z,32.84
2023-04-17T05:02:20.784Z,34.07
2023-04-17T05:03:20.955Z,35.06
2023-04-17T05:04:20.776Z,36.33
2023-04-17T05:05:20.723Z,37.06
2023-04-17T05:06:20.714Z,35.59
2023-04-17T05:07:20.710Z,38.18
2023-04-17T05:08:20.780Z,37.67
2023-04-17T05:09:20.717Z,35.28
2023-04-17T05:10:20.768Z,36.05
2023-04-17T05:11:20.752Z,33.69
2023-04-17T05:12:20.788Z,34.54
2023-04-17T05:13:20.899Z,34.65
2023-04-17T05:14:20.792Z,35.26
2023-04-17T05:15:20.799Z,38.87
2023-04-17T05:16:20.855Z,40.53
2023-04-17T05:17:20.951Z,39.53
2023-04-17T05:18:20.884Z,38.89
2023-04-17T05:19:20.846Z,39.26
2023-04-17T05:20:20.907Z,41.97
2023-04-17T05:21:20.944Z,41.81
2023-04-17T05:22:21.001Z,43.34
2023-04-17T05:23:21.075Z,45.56
2023-04-17T05:24:21.063Z,46.45
2023-04-17T05:25:21.111Z,45.83
2023-04-17T05:26:21.139Z,46.23
2023-04-17T05:27:21.230Z,46.88
2023-04-17T05:28:21.262Z,47.65
2023-04-17T05:29:21.255Z,44.76
2023-04-17T05:30:21.378Z,46.54
2023-04-17T05:31:21.487Z,44.74
2023-04-17T05:32:21.503Z,43.40
2023-04-17T05:33:21.929Z,46.26
2023-04-17T05:34:22.615Z,47.39
2023-04-17T05:35:21.577Z,51.39
2023-04-17T05:36:21.582Z,57.44
2023-04-17T05:37:21.626Z,60.88
2023-04-17T05:38:21.938Z,63.85
2023-04-17T05:39:21.781Z,63.93
2023-04-17T05:40:21.718Z,64.66
2023-04-17T05:41:21.703Z,65.82
2023-04-17T05:42:21.728Z,67.87
2023-04-17T05:43:21.729Z,69.36
2023-04-17T05:44:21.720Z,71.18
2023-04-17T05:45:24.182Z,69.98
2023-04-17T05:46:21.893Z,63.28
2023-04-17T05:47:21.968Z,56.82
2023-04-17T05:48:21.875Z,56.82
2023-04-17T05:49:21.855Z,52.73
2023-04-17T05:50:21.873Z,46.13
2023-04-17T05:51:21.880Z,44.54
2023-04-17T05:52:21.870Z,41.64
2023-04-17T05:53:21.924Z,37.12
2023-04-17T05:54:22.421Z,39.32
2023-04-17T05:55:21.909Z,39.42
2023-04-17T05:56:22.021Z,36.71
2023-04-17T05:57:21.958Z,32.49
2023-04-17T05:58:24.421Z,37.80
2023-04-17T05:59:22.960Z,34.38
2023-04-17T06:00:22.017Z,36.88
2023-04-17T06:01:22.012Z,41.59
2023-04-17T06:02:22.183Z,40.00
2023-04-17T06:03:22.205Z,39.19
2023-04-17T06:04:22.267Z,41.81
2023-04-17T06:05:22.187Z,41.26
2023-04-17T06:06:22.067Z,42.46
2023-04-17T06:07:22.101Z,42.11
2023-04-17T06:08:22.103Z,44.87
2023-04-17T06:09:23.019Z,43.22
2023-04-17T06:10:22.154Z,41.51
2023-04-17T06:11:22.182Z,40.34
2023-04-17T06:12:22.213Z,38.04
2023-04-17T06:13:22.256Z,36.91
2023-04-17T06:14:22.357Z,33.45
2023-04-17T06:15:22.346Z,32.98
2023-04-17T06:16:23.029Z,34.67
2023-04-17T06:17:22.577Z,37.13
2023-04-17T06:18:22.535Z,38.17
2023-04-17T06:19:22.676Z,38.06
2023-04-17T06:20:22.564Z,41.88
2023-04-17T06:21:22.617Z,49.31
2023-04-17T06:22:22.670Z,54.21
2023-04-17T06:23:22.676Z,62.59
2023-04-17T06:24:22.708Z,67.01
2023-04-17T06:25:22.738Z,73.09
2023-04-17T06:26:22.763Z,77.00
2023-04-17T06:27:22.781Z,88.80
2023-04-17T06:28:22.802Z,87.26
2023-04-17T06:29:22.820Z,95.74
2023-04-17T06:30:22.869Z,105.63
2023-04-17T06:31:22.939Z,108.59
2023-04-17T06:32:22.926Z,109.02
2023-04-17T06:33:24.610Z,103.89
2023-04-17T06:34:22.970Z,96.52
2023-04-17T06:35:22.970Z,91.09
2023-04-17T06:36:23.002Z,93.60
2023-04-17T06:37:23.070Z,90.27
2023-04-17T06:38:23.045Z,84.03
2023-04-17T06:39:23.056Z,81.08
2023-04-17T06:40:23.080Z,73.65
2023-04-17T06:41:23.083Z,67.11
2023-04-17T06:42:23.075Z,65.97
2023-04-17T06:43:23.116Z,60.32
2023-04-17T06:44:23.119Z,56.69
2023-04-17T06:45:23.948Z,53.57
2023-04-17T06:46:23.268Z,52.67
2023-04-17T06:47:23.253Z,25.06
2023-04-17T06:48:23.210Z,0.00
2023-04-17T06:49:23.254Z,0.00
2023-04-17T06:50:23.242Z,0.00
2023-04-17T06:51:23.398Z,0.00
2023-04-17T06:52:23.270Z,0.00
2023-04-17T06:53:23.314Z,0.00
2023-04-17T06:54:23.337Z,0.00
2023-04-17T06:55:23.311Z,0.00
2023-04-17T06:56:23.346Z,11.44
2023-04-17T06:57:23.341Z,14.26
2023-04-17T06:58:23.392Z,23.58
2023-04-17T06:59:23.386Z,4.50
2023-04-17T07:00:23.451Z,0.00
2023-04-17T07:01:23.464Z,0.00
2023-04-17T07:02:23.619Z,0.00
2023-04-17T07:03:23.721Z,0.00
2023-04-17T07:04:23.715Z,0.00
2023-04-17T07:05:23.600Z,5.93
2023-04-17T07:06:23.627Z,16.80
2023-04-17T07:07:23.673Z,16.87
2023-04-17T07:08:23.974Z,16.84
2023-04-17T07:09:23.809Z,17.32
2023-04-17T07:10:23.779Z,17.04
2023-04-17T07:11:23.844Z,17.95
2023-04-17T07:12:23.840Z,24.94
2023-04-17T07:13:23.895Z,28.77
2023-04-17T07:14:23.954Z,29.05
2023-04-17T07:15:23.969Z,31.78
2023-04-17T07:16:24.024Z,38.05
2023-04-17T07:17:24.018Z,40.03
2023-04-17T07:18:24.144Z,45.08
2023-04-17T07:19:24.064Z,48.30
2023-04-17T07:20:24.092Z,51.50
2023-04-17T07:21:24.259Z,47.09
2023-04-17T07:22:25.365Z,41.48
2023-04-17T07:23:24.165Z,32.73
2023-04-17T07:24:24.482Z,30.34
2023-04-17T07:25:24.281Z,37.61
2023-04-17T07:26:24.296Z,41.28
2023-04-17T07:27:24.414Z,47.60
2023-04-17T07:28:24.314Z,48.94
2023-04-17T07:29:24.460Z,52.30
2023-04-17T07:30:24.387Z,55.52
2023-04-17T07:31:24.432Z,51.32
2023-04-17T07:32:24.492Z,46.23
2023-04-17T07:33:24.472Z,42.25
2023-04-17T07:34:24.568Z,44.73
2023-04-17T07:35:24.499Z,46.30
2023-04-17T07:36:25.502Z,47.49
2023-04-17T07:37:24.570Z,49.50
2023-04-17T07:38:24.702Z,55.79
2023-04-17T07:39:24.614Z,72.91
2023-04-17T07:40:24.639Z,81.71
2023-04-17T07:41:24.734Z,85.86
2023-04-17T07:42:24.668Z,89.30
2023-04-17T07:43:24.693Z,95.82
2023-04-17T07:44:24.730Z,100.01
2023-04-17T07:45:24.727Z,102.73
2023-04-17T07:46:24.800Z,107.56
2023-04-17T07:47:24.842Z,115.27
2023-04-17T07:48:24.802Z,123.27
2023-04-17T07:49:26.617Z,125.87
2023-04-17T07:50:24.859Z,127.21
2023-04-17T07:51:24.912Z,125.87
2023-04-17T07:52:25.048Z,128.70
2023-04-17T07:53:25.071Z,131.56
2023-04-17T07:54:25.117Z,133.91
2023-04-17T07:55:25.229Z,134.82
2023-04-17T07:56:25.291Z,132.33
2023-04-17T07:57:25.360Z,131.65
2023-04-17T07:58:25.400Z,131.66
2023-04-17T07:59:25.389Z,131.70
2023-04-17T08:00:25.464Z,127.22
2023-04-17T08:01:25.423Z,130.04
2023-04-17T08:02:25.588Z,130.15
2023-04-17T08:03:25.591Z,127.42
2023-04-17T08:04:25.617Z,125.76
2023-04-17T08:05:25.576Z,125.82
2023-04-17T08:06:25.540Z,124.39
2023-04-17T08:07:25.622Z,123.47
2023-04-17T08:08:25.686Z,123.94
2023-04-17T08:09:25.775Z,120.77
2023-04-17T08:10:25.815Z,125.10
2023-04-17T08:11:25.917Z,129.93
2023-04-17T08:12:26.098Z,131.62
2023-04-17T08:13:26.097Z,129.05
2023-04-17T08:14:26.528Z,128.88
2023-04-17T08:15:26.263Z,129.19
2023-04-17T08:16:27.027Z,127.50
2023-04-17T08:17:26.461Z,124.73
2023-04-17T08:18:26.593Z,130.00
2023-04-17T08:19:26.559Z,133.09
2023-04-17T08:20:26.628Z,137.16
2023-04-17T08:21:26.705Z,136.79
2023-04-17T08:22:26.770Z,135.32
2023-04-17T08:23:26.884Z,133.03
2023-04-17T08:24:26.807Z,134.81
2023-04-17T08:25:26.812Z,135.65
2023-04-17T08:26:26.842Z,137.85
2023-04-17T08:27:26.856Z,135.59
2023-04-17T08:28:26.889Z,136.18
2023-04-17T08:29:26.972Z,137.36
2023-04-17T08:30:26.874Z,136.99
2023-04-17T08:31:27.031Z,137.88
2023-04-17T08:32:27.510Z,139.18
2023-04-17T08:33:26.971Z,135.99
2023-04-17T08:34:26.988Z,132.89
2023-04-17T08:35:27.023Z,136.14
2023-04-17T08:36:26.988Z,134.67
2023-04-17T08:37:27.122Z,134.84
2023-04-17T08:38:27.170Z,132.47
2023-04-17T08:39:27.442Z,131.62
2023-04-17T08:40:27.346Z,132.68
2023-04-17T08:41:27.372Z,135.75
2023-04-17T08:42:27.443Z,130.02
2023-04-17T08:43:27.509Z,131.05
2023-04-17T08:44:27.594Z,132.59
2023-04-17T08:45:27.626Z,133.68
2023-04-17T08:46:27.712Z,134.30
2023-04-17T08:47:27.711Z,134.40
2023-04-17T08:48:27.691Z,134.43
2023-04-17T08:49:27.701Z,135.21
2023-04-17T08:50:27.812Z,135.47
2023-04-17T08:51:27.775Z,119.55
2023-04-17T08:52:27.704Z,109.59
2023-04-17T08:53:27.736Z,93.13
2023-04-17T08:54:27.772Z,82.80
2023-04-17T08:55:27.799Z,70.51
2023-04-17T08:56:27.803Z,61.59
2023-04-17T08:57:27.809Z,54.57
2023-04-17T08:58:28.729Z,48.44
2023-04-17T08:59:27.848Z,41.03
2023-04-17T09:00:27.881Z,34.66
2023-04-17T09:01:27.989Z,30.09
2023-04-17T09:02:28.192Z,25.82
2023-04-17T09:03:28.191Z,23.29
2023-04-17T09:04:28.109Z,24.66
2023-04-17T09:05:28.028Z,25.02
2023-04-17T09:06:28.027Z,25.00
2023-04-17T09:07:28.055Z,25.00
2023-04-17T09:08:28.134Z,24.88
2023-04-17T09:09:28.105Z,25.00
2023-04-17T09:10:28.181Z,25.63
2023-04-17T09:11:28.248Z,25.00
2023-04-17T09:12:28.319Z,25.21
2023-04-17T09:13:28.371Z,25.00
2023-04-17T09:14:28.991Z,25.00
2023-04-17T09:15:28.524Z,25.30
2023-04-17T09:16:28.864Z,26.78
2023-04-17T09:17:28.710Z,25.57
2023-04-17T09:18:28.769Z,26.68
2023-04-17T09:19:28.799Z,26.62
2023-04-17T09:20:28.840Z,27.00
2023-04-17T09:21:28.844Z,27.78
2023-04-17T09:22:28.954Z,29.67
2023-04-17T09:23:28.962Z,30.71
2023-04-17T09:24:28.952Z,26.82
2023-04-17T09:25:28.994Z,27.69
2023-04-17T09:26:28.989Z,30.19
2023-04-17T09:27:29.061Z,32.79
2023-04-17T09:28:29.059Z,38.14
2023-04-17T09:29:29.130Z,36.41
2023-04-17T09:30:29.265Z,37.97
2023-04-17T09:31:29.278Z,35.62
2023-04-17T09:32:29.207Z,35.26
2023-04-17T09:33:29.285Z,34.63
2023-04-17T09:34:29.273Z,30.17
2023-04-17T09:35:29.335Z,27.05
2023-04-17T09:36:29.311Z,25.19
2023-04-17T09:37:29.355Z,26.42
2023-04-17T09:38:29.403Z,28.05
2023-04-17T09:39:29.490Z,35.48
2023-04-17T09:40:29.457Z,51.55
2023-04-17T09:41:29.528Z,89.13
2023-04-17T09:42:29.535Z,110.07
2023-04-17T09:43:29.561Z,126.49
2023-04-17T09:44:29.568Z,136.90
2023-04-17T09:45:29.664Z,144.42
2023-04-17T09:46:30.628Z,146.02
2023-04-17T09:47:29.661Z,151.76
2023-04-17T09:48:29.673Z,153.81
2023-04-17T09:49:29.719Z,152.22
2023-04-17T09:50:29.681Z,153.50
2023-04-17T09:51:29.711Z,154.52
2023-04-17T09:52:29.715Z,156.53
2023-04-17T09:53:29.755Z,159.17
2023-04-17T09:54:29.823Z,161.67
2023-04-17T09:55:29.977Z,163.95
2023-04-17T09:56:29.961Z,164.22
2023-04-17T09:57:30.017Z,169.60
2023-04-17T09:58:30.104Z,175.01
2023-04-17T09:59:30.276Z,177.10
2023-04-17T10:00:30.274Z,176.14
2023-04-17T10:01:30.352Z,179.48
2023-04-17T10:02:30.511Z,179.84
2023-04-17T10:03:30.700Z,181.42
2023-04-17T10:04:30.565Z,183.88
2023-04-17T10:05:30.618Z,184.05
2023-04-17T10:06:30.720Z,186.42
2023-04-17T10:07:30.792Z,189.92
2023-04-17T10:08:30.859Z,192.62
2023-04-17T10:09:31.014Z,192.81
2023-04-17T10:10:31.044Z,194.60
2023-04-17T10:11:31.105Z,196.49
2023-04-17T10:12:32.468Z,198.88
2023-04-17T10:13:31.244Z,203.74
2023-04-17T10:14:31.341Z,202.88
2023-04-17T10:15:31.432Z,205.97
2023-04-17T10:16:31.468Z,206.04
2023-04-17T10:17:32.164Z,206.43
2023-04-17T10:18:31.556Z,207.60
2023-04-17T10:19:31.471Z,209.17
2023-04-17T10:20:31.465Z,210.49
2023-04-17T10:21:31.483Z,213.99
2023-04-17T10:22:31.583Z,214.78
2023-04-17T10:23:31.611Z,214.72
2023-04-17T10:24:31.500Z,214.73
2023-04-17T10:25:32.558Z,215.03
2023-04-17T10:26:32.055Z,215.75
2023-04-17T10:27:31.608Z,214.82
2023-04-17T10:28:31.600Z,215.23
2023-04-17T10:29:31.647Z,216.92
2023-04-17T10:30:32.058Z,218.65
2023-04-17T10:31:31.714Z,222.48
2023-04-17T10:32:31.825Z,224.82
2023-04-17T10:33:31.935Z,224.85
2023-04-17T10:34:32.525Z,225.28
2023-04-17T10:35:31.779Z,225.78
2023-04-17T10:36:31.769Z,227.16
2023-04-17T10:37:31.814Z,226.47
2023-04-17T10:38:34.541Z,226.04
2023-04-17T10:39:31.838Z,224.05
2023-04-17T10:40:31.827Z,226.09
2023-04-17T10:41:31.874Z,225.84
2023-04-17T10:42:31.866Z,226.94
2023-04-17T10:43:31.845Z,227.34
2023-04-17T10:44:31.868Z,227.37
2023-04-17T10:45:31.929Z,224.77
2023-04-17T10:46:31.942Z,222.46
2023-04-17T10:47:31.974Z,221.30
2023-04-17T10:48:31.964Z,223.68
2023-04-17T10:49:31.928Z,223.63
2023-04-17T10:50:31.925Z,223.01
2023-04-17T10:51:31.950Z,223.49
2023-04-17T10:52:31.974Z,225.38
2023-04-17T10:53:31.964Z,226.19
2023-04-17T10:54:31.953Z,224.18
2023-04-17T10:55:31.971Z,221.95
2023-04-17T10:56:31.987Z,224.23
2023-04-17T10:57:31.984Z,221.56
2023-04-17T10:58:32.193Z,221.97
2023-04-17T10:59:31.972Z,219.71
2023-04-17T11:00:31.996Z,220.21
2023-04-17T11:01:32.129Z,220.94
2023-04-17T11:02:32.015Z,222.43
2023-04-17T11:03:32.107Z,223.43
2023-04-17T11:04:32.241Z,221.77
2023-04-17T11:05:32.009Z,222.57
2023-04-17T11:06:32.038Z,221.55
2023-04-17T11:07:32.017Z,222.02
2023-04-17T11:08:32.038Z,222.10
2023-04-17T11:09:32.047Z,222.20
2023-04-17T11:10:32.047Z,223.72
2023-04-17T11:11:43.438Z,224.43
2023-04-17T11:12:33.038Z,224.46
2023-04-17T11:13:32.555Z,224.48
2023-04-17T11:14:32.081Z,224.64
2023-04-17T11:15:32.039Z,225.77
2023-04-17T11:16:32.098Z,226.52
2023-04-17T11:17:32.097Z,226.04
2023-04-17T11:18:32.040Z,226.66
2023-04-17T11:19:32.126Z,222.72
2023-04-17T11:20:32.106Z,223.89
2023-04-17T11:21:32.157Z,223.05
2023-04-17T11:22:32.039Z,220.34
2023-04-17T11:23:32.066Z,219.28
2023-04-17T11:24:32.052Z,219.51
2023-04-17T11:25:32.117Z,216.27
2023-04-17T11:26:32.147Z,216.45
2023-04-17T11:27:32.132Z,213.34
2023-04-17T11:28:32.086Z,213.93
2023-04-17T11:29:32.160Z,215.12
2023-04-17T11:30:32.087Z,213.71
2023-04-17T11:31:32.146Z,213.05
2023-04-17T11:32:32.063Z,215.06
2023-04-17T11:33:32.072Z,216.13
2023-04-17T11:34:32.058Z,217.66
2023-04-17T11:35:32.046Z,216.67
2023-04-17T11:36:32.067Z,217.29
2023-04-17T11:37:32.087Z,219.60
2023-04-17T11:38:32.062Z,219.80
2023-04-17T11:39:32.069Z,219.78
2023-04-17T11:40:32.130Z,220.79
2023-04-17T11:41:32.105Z,222.28
2023-04-17T11:42:32.093Z,223.73
2023-04-17T11:43:32.098Z,223.81
2023-04-17T11:44:32.107Z,223.65
2023-04-17T11:45:32.079Z,224.56
2023-04-17T11:46:32.124Z,219.15
2023-04-17T11:47:32.093Z,212.15
2023-04-17T11:48:32.092Z,205.29
2023-04-17T11:49:32.100Z,209.61
2023-04-17T11:50:32.084Z,216.83
2023-04-17T11:51:32.064Z,226.72
2023-04-17T11:52:32.153Z,235.44
2023-04-17T11:53:32.086Z,240.20
2023-04-17T11:54:32.095Z,240.30
2023-04-17T11:55:32.056Z,240.39
2023-04-17T11:56:32.094Z,241.26
2023-04-17T11:57:32.053Z,243.60
2023-04-17T11:58:32.128Z,246.77
2023-04-17T11:59:32.056Z,250.63
2023-04-17T12:00:32.025Z,240.59
2023-04-17T12:01:32.029Z,242.16
2023-04-17T12:02:32.209Z,240.70
2023-04-17T12:03:32.366Z,242.55
2023-04-17T12:04:32.180Z,246.46
2023-04-17T12:05:32.040Z,251.83
2023-04-17T12:06:32.084Z,260.09
2023-04-17T12:07:32.002Z,253.91
2023-04-17T12:08:32.012Z,250.00
2023-04-17T12:09:32.142Z,250.00
2023-04-17T12:10:32.001Z,249.85
2023-04-17T12:11:32.047Z,249.39
2023-04-17T12:12:32.187Z,248.81
2023-04-17T12:13:32.188Z,248.44
2023-04-17T12:14:32.260Z,246.93
2023-04-17T12:15:32.228Z,246.37
2023-04-17T12:16:32.293Z,246.19
2023-04-17T12:17:32.241Z,246.21
2023-04-17T12:18:32.228Z,246.30
2023-04-17T12:19:32.288Z,244.49
2023-04-17T12:20:32.202Z,246.28
2023-04-17T12:21:32.282Z,245.02
2023-04-17T12:22:32.245Z,246.20
2023-04-17T12:23:32.232Z,244.77
2023-04-17T12:24:32.277Z,244.61
2023-04-17T12:25:32.205Z,243.78
2023-04-17T12:26:32.209Z,243.49
2023-04-17T12:27:32.209Z,244.32
2023-04-17T12:28:32.219Z,242.37
2023-04-17T12:29:42.957Z,242.57
2023-04-17T12:30:33.235Z,242.61
2023-04-17T12:31:32.253Z,242.71
2023-04-17T12:32:32.349Z,242.75
2023-04-17T12:33:32.250Z,242.20
2023-04-17T12:34:32.222Z,241.38
2023-04-17T12:35:32.226Z,241.33
2023-04-17T12:36:32.324Z,241.81
2023-04-17T12:37:32.262Z,242.22
2023-04-17T12:38:32.300Z,241.42
2023-04-17T12:39:32.375Z,239.44